createdAt,value
2019-03-12T00:01:15.620Z,2.60
2019-03-12T00:03:19.404Z,2.70
2019-03-12T00:05:23.238Z,2.70
2019-03-12T00:07:27.413Z,2.70
2019-03-12T00:09:32.638Z,2.70
2019-03-12T00:11:36.631Z,2.70
2019-03-12T00:13:40.493Z,2.70
2019-03-12T00:15:44.995Z,2.60
2019-03-12T00:17:48.803Z,2.50
2019-03-12T00:19:52.659Z,2.50
2019-03-12T00:21:56.459Z,2.50
2019-03-12T00:24:00.256Z,2.50
2019-03-12T00:26:04.211Z,2.50
2019-03-12T00:28:08.001Z,2.50
2019-03-12T00:30:12.606Z,2.50
2019-03-12T00:32:16.647Z,2.50
2019-03-12T00:34:20.535Z,2.50
2019-03-12T00:36:24.541Z,2.40
2019-03-12T00:38:28.375Z,2.30
2019-03-12T00:40:32.267Z,2.30
2019-03-12T00:42:36.196Z,2.20
2019-03-12T00:44:39.999Z,2.20
2019-03-12T00:46:44.816Z,2.20
2019-03-12T00:48:48.621Z,2.10
2019-03-12T00:50:52.479Z,2.00
2019-03-12T00:52:56.335Z,1.90
2019-03-12T00:55:00.351Z,1.80
2019-03-12T00:57:04.281Z,1.80
2019-03-12T00:59:08.068Z,1.70
2019-03-12T01:01:12.199Z,1.70
2019-03-12T01:03:16.271Z,1.70
2019-03-12T01:05:20.093Z,1.70
2019-03-12T01:07:23.951Z,1.80
2019-03-12T01:09:28.039Z,1.90
2019-03-12T01:11:32.724Z,2.00
2019-03-12T01:13:36.641Z,2.00
2019-03-12T01:15:40.590Z,2.10
2019-03-12T01:17:45.395Z,2.00
2019-03-12T01:19:49.198Z,1.80
2019-03-12T01:21:53.159Z,1.70
2019-03-12T01:23:57.072Z,1.70
2019-03-12T01:26:00.923Z,1.60
2019-03-12T01:28:04.875Z,1.60
2019-03-12T01:30:11.227Z,1.60
2019-03-12T01:32:15.955Z,1.60
2019-03-12T01:34:19.747Z,1.70
2019-03-12T01:36:23.706Z,1.70
2019-03-12T01:38:27.574Z,1.70
2019-03-12T01:40:31.363Z,1.90
2019-03-12T01:42:35.106Z,1.80
2019-03-12T01:44:39.077Z,1.90
2019-03-12T01:46:43.255Z,1.80
2019-03-12T01:48:47.227Z,1.70
2019-03-12T01:50:51.539Z,1.70
2019-03-12T01:52:55.416Z,1.60
2019-03-12T01:54:59.383Z,1.50
2019-03-12T01:57:03.202Z,1.50
2019-03-12T01:59:06.958Z,1.50
2019-03-12T02:01:10.931Z,1.50
2019-03-12T02:03:15.143Z,1.60
2019-03-12T02:05:18.992Z,1.70
2019-03-12T02:07:22.771Z,1.70
2019-03-12T02:09:26.583Z,1.80
2019-03-12T02:11:31.071Z,1.70
2019-03-12T02:13:34.847Z,1.70
2019-03-12T02:15:38.655Z,1.70
2019-03-12T02:17:42.681Z,1.70
2019-03-12T02:19:46.797Z,1.60
2019-03-12T02:21:50.726Z,1.60
2019-03-12T02:23:54.586Z,1.60
2019-03-12T02:25:58.444Z,1.60
2019-03-12T02:28:03.459Z,1.60
2019-03-12T02:30:08.897Z,1.50
2019-03-12T02:32:12.871Z,1.60
2019-03-12T02:34:16.919Z,1.50
2019-03-12T02:36:20.653Z,1.50
2019-03-12T02:38:24.482Z,1.50
2019-03-12T02:40:28.389Z,1.40
2019-03-12T02:42:32.239Z,1.40
2019-03-12T02:44:36.023Z,1.40
2019-03-12T02:46:40.100Z,1.40
2019-03-12T02:48:44.449Z,1.40
2019-03-12T02:50:48.468Z,1.40
2019-03-12T02:52:52.261Z,1.40
2019-03-12T02:54:56.073Z,1.40
2019-03-12T02:56:59.839Z,1.20
2019-03-12T02:59:03.723Z,1.20
2019-03-12T03:01:07.603Z,1.10
2019-03-12T03:03:11.423Z,1.00
2019-03-12T03:05:15.844Z,0.90
2019-03-12T03:07:37.559Z,0.80
2019-03-12T03:09:41.411Z,0.70
2019-03-12T03:11:45.948Z,0.60
2019-03-12T03:13:50.377Z,0.50
2019-03-12T03:15:54.399Z,0.40
2019-03-12T03:17:58.191Z,0.40
2019-03-12T03:20:02.057Z,0.40
2019-03-12T03:22:05.876Z,0.40
2019-03-12T03:24:09.711Z,0.40
2019-03-12T03:26:14.137Z,0.40
2019-03-12T03:28:18.052Z,0.30
2019-03-12T03:30:22.979Z,0.40
2019-03-12T03:32:26.886Z,0.40
2019-03-12T03:34:30.781Z,0.40
2019-03-12T03:36:35.048Z,0.30
2019-03-12T03:38:38.889Z,0.30
2019-03-12T03:40:42.916Z,0.30
2019-03-12T03:42:47.491Z,0.50
2019-03-12T03:44:51.549Z,0.40
2019-03-12T03:46:55.545Z,0.40
2019-03-12T03:48:59.487Z,0.40
2019-03-12T03:51:03.357Z,0.30
2019-03-12T03:53:07.293Z,0.40
2019-03-12T03:55:14.344Z,0.40
2019-03-12T03:57:18.368Z,0.40
2019-03-12T03:59:22.140Z,0.40
2019-03-12T04:01:25.956Z,0.40
2019-03-12T04:03:29.752Z,0.50
2019-03-12T04:05:33.532Z,0.50
2019-03-12T04:07:37.476Z,0.80
2019-03-12T04:09:41.557Z,0.90
2019-03-12T04:11:45.846Z,1.00
2019-03-12T04:13:49.629Z,1.00
2019-03-12T04:15:53.894Z,1.10
2019-03-12T04:17:57.904Z,1.20
2019-03-12T04:20:01.723Z,1.20
2019-03-12T04:22:05.641Z,1.10
2019-03-12T04:24:09.535Z,1.00
2019-03-12T04:26:13.722Z,1.10
2019-03-12T04:28:17.797Z,1.10
2019-03-12T04:30:21.667Z,1.00
2019-03-12T04:32:25.770Z,1.10
2019-03-12T04:34:47.881Z,1.10
2019-03-12T04:36:52.295Z,1.20
2019-03-12T04:38:56.099Z,1.20
2019-03-12T04:40:59.993Z,1.20
2019-03-12T04:43:04.665Z,1.10
2019-03-12T04:45:10.227Z,1.20
2019-03-12T04:47:14.734Z,1.20
2019-03-12T04:49:18.731Z,1.20
2019-03-12T04:51:22.831Z,1.20
2019-03-12T04:53:26.615Z,1.20
2019-03-12T04:55:30.438Z,1.20
2019-03-12T04:57:34.327Z,1.20
2019-03-12T04:59:38.140Z,1.30
2019-03-12T05:01:42.035Z,1.30
2019-03-12T05:03:46.906Z,1.30
2019-03-12T05:05:50.780Z,1.30
2019-03-12T05:07:54.561Z,1.30
2019-03-12T05:09:58.499Z,1.30
2019-03-12T05:12:32.616Z,1.40
2019-03-12T05:14:37.558Z,1.40
2019-03-12T05:16:41.347Z,1.60
2019-03-12T05:18:47.379Z,1.50
2019-03-12T05:20:51.140Z,1.70
2019-03-12T05:22:54.975Z,1.60
2019-03-12T05:24:58.899Z,1.60
2019-03-12T05:27:02.758Z,1.50
2019-03-12T05:29:06.551Z,1.60
2019-03-12T05:31:10.339Z,1.50
2019-03-12T05:33:15.118Z,1.40
2019-03-12T05:35:19.211Z,1.30
2019-03-12T05:37:23.071Z,1.30
2019-03-12T05:39:26.899Z,1.20
2019-03-12T05:41:30.704Z,1.00
2019-03-12T05:43:34.478Z,0.90
2019-03-12T05:45:38.367Z,0.80
2019-03-12T05:47:42.204Z,0.80
2019-03-12T05:49:46.895Z,0.80
2019-03-12T05:51:50.768Z,0.70
2019-03-12T05:53:54.711Z,0.80
2019-03-12T05:55:58.495Z,0.80
2019-03-12T05:58:02.733Z,1.00
2019-03-12T06:00:07.739Z,1.10
2019-03-12T06:02:11.492Z,1.20
2019-03-12T06:04:16.324Z,1.40
2019-03-12T06:06:20.137Z,1.50
2019-03-12T06:08:23.959Z,1.50
2019-03-12T06:10:27.797Z,1.50
2019-03-12T06:12:31.608Z,1.50
2019-03-12T06:14:35.401Z,1.50
2019-03-12T06:16:39.175Z,1.60
2019-03-12T06:18:43.238Z,1.60
2019-03-12T06:20:48.084Z,1.60
2019-03-12T06:22:51.998Z,1.60
2019-03-12T06:24:55.847Z,1.70
2019-03-12T06:26:59.634Z,1.80
2019-03-12T06:29:03.498Z,2.00
2019-03-12T06:31:21.015Z,2.00
2019-03-12T06:33:27.916Z,2.20
2019-03-12T06:35:39.507Z,2.50
2019-03-12T06:37:54.603Z,2.60
2019-03-12T06:40:05.374Z,2.70
2019-03-12T06:42:37.456Z,2.70
2019-03-12T06:44:48.123Z,2.70
2019-03-12T06:46:59.359Z,2.70
2019-03-12T06:49:10.021Z,2.80
2019-03-12T06:51:26.859Z,2.90
2019-03-12T06:53:52.819Z,3.00
2019-03-12T06:56:17.443Z,3.00
2019-03-12T06:58:40.386Z,2.90
2019-03-12T07:00:52.860Z,2.90
2019-03-12T07:03:22.716Z,3.00
2019-03-12T07:05:53.208Z,3.00
2019-03-12T07:08:09.459Z,3.20
2019-03-12T07:10:38.808Z,3.30
2019-03-12T07:12:52.866Z,3.30
2019-03-12T07:15:25.258Z,3.20
2019-03-12T07:17:41.983Z,3.20
2019-03-12T07:20:20.147Z,3.20
2019-03-12T07:22:43.728Z,3.40
2019-03-12T07:24:59.492Z,3.70
2019-03-12T07:27:09.919Z,4.00
2019-03-12T07:29:20.446Z,4.30
2019-03-12T07:31:39.479Z,4.60
2019-03-12T07:34:08.781Z,4.70
2019-03-12T07:36:28.895Z,5.00
2019-03-12T07:38:54.627Z,5.20
2019-03-12T07:41:31.302Z,5.30
2019-03-12T07:43:45.982Z,5.50
2019-03-12T07:46:05.543Z,5.70
2019-03-12T07:48:27.711Z,5.90
2019-03-12T07:50:49.414Z,5.90
2019-03-12T07:53:00.922Z,6.10
2019-03-12T07:55:36.623Z,6.20
2019-03-12T07:58:17.984Z,6.10
2019-03-12T08:00:59.059Z,5.70
2019-03-12T08:03:34.105Z,5.60
2019-03-12T08:05:47.577Z,5.50
2019-03-12T08:07:58.650Z,5.40
2019-03-12T08:10:21.583Z,5.40
2019-03-12T08:12:50.564Z,5.40
2019-03-12T08:15:22.270Z,5.60
2019-03-12T08:17:31.099Z,5.70
2019-03-12T08:19:42.445Z,5.60
2019-03-12T08:22:10.351Z,5.70
2019-03-12T08:27:07.050Z,5.80
2019-03-12T08:29:21.523Z,5.80
2019-03-12T08:31:42.138Z,5.60
2019-03-12T08:33:52.317Z,5.50
2019-03-12T08:36:15.851Z,5.80
2019-03-12T08:38:38.167Z,5.90
2019-03-12T08:41:03.933Z,6.20
2019-03-12T08:43:17.212Z,6.40
2019-03-12T08:45:33.599Z,6.50
2019-03-12T08:50:45.027Z,6.90
2019-03-12T08:52:58.757Z,7.00
2019-03-12T08:55:19.171Z,6.70
2019-03-12T08:57:49.207Z,6.70
2019-03-12T09:00:12.173Z,6.50
2019-03-12T09:02:35.027Z,6.50
2019-03-12T09:04:56.646Z,6.90
2019-03-12T09:07:09.692Z,7.10
2019-03-12T09:09:19.639Z,7.40
2019-03-12T09:11:57.907Z,7.50
2019-03-12T09:14:19.333Z,7.50
2019-03-12T09:16:40.266Z,7.40
2019-03-12T09:19:18.496Z,7.30
2019-03-12T09:21:40.037Z,7.30
2019-03-12T09:24:03.160Z,7.30
2019-03-12T09:26:32.839Z,7.30
2019-03-12T09:28:44.436Z,7.10
2019-03-12T09:31:08.050Z,6.90
2019-03-12T09:33:43.651Z,6.80
2019-03-12T09:36:01.635Z,6.90
2019-03-12T09:38:30.682Z,7.20
2019-03-12T09:41:02.896Z,7.50
2019-03-12T09:43:24.786Z,7.80
2019-03-12T09:45:47.208Z,8.10
2019-03-12T09:48:22.339Z,8.30
2019-03-12T09:50:53.555Z,8.50
2019-03-12T09:53:05.722Z,7.90
2019-03-12T09:55:30.847Z,7.60
2019-03-12T09:57:57.974Z,7.90
2019-03-12T10:00:30.264Z,8.10
2019-03-12T10:03:05.331Z,8.40
2019-03-12T10:05:31.387Z,8.40
2019-03-12T10:07:53.040Z,8.40
2019-03-12T10:10:19.159Z,8.10
2019-03-12T10:12:50.995Z,7.70
2019-03-12T10:15:14.526Z,8.20
2019-03-12T10:17:38.475Z,9.40
2019-03-12T10:19:58.338Z,10.00
2019-03-12T10:22:11.056Z,10.10
2019-03-12T10:24:28.700Z,10.90
2019-03-12T10:27:05.672Z,11.80
2019-03-12T10:29:27.214Z,11.50
2019-03-12T10:31:41.355Z,11.70
2019-03-12T10:34:07.594Z,11.70
2019-03-12T10:36:31.435Z,10.90
2019-03-12T10:39:21.387Z,10.30
2019-03-12T10:41:34.702Z,9.30
2019-03-12T10:43:44.688Z,9.10
2019-03-12T10:45:57.224Z,9.30
2019-03-12T10:48:01.423Z,9.10
2019-03-12T10:50:05.672Z,9.00
2019-03-12T10:52:09.513Z,9.00
2019-03-12T10:54:13.368Z,9.20
2019-03-12T10:56:17.753Z,8.70
2019-03-12T10:58:21.807Z,8.70
2019-03-12T11:00:25.750Z,8.40
2019-03-12T11:02:29.567Z,8.40
2019-03-12T11:04:34.781Z,8.40
2019-03-12T11:06:38.747Z,8.20
2019-03-12T11:08:42.602Z,8.10
2019-03-12T11:10:46.469Z,8.20
2019-03-12T11:12:50.987Z,8.30
2019-03-12T11:14:54.791Z,8.40
2019-03-12T11:16:58.718Z,8.50
2019-03-12T11:19:02.669Z,8.80
2019-03-12T11:21:06.443Z,8.70
2019-03-12T11:23:10.355Z,8.80
2019-03-12T11:25:26.617Z,8.80
2019-03-12T11:27:20.702Z,9.20
2019-03-12T11:29:24.917Z,9.00
2019-03-12T11:31:28.723Z,9.40
2019-03-12T11:33:32.502Z,9.90
2019-03-12T11:35:39.271Z,9.80
2019-03-12T11:37:42.104Z,9.40
2019-03-12T11:39:45.913Z,9.40
2019-03-12T11:41:50.910Z,9.50
2019-03-12T11:43:54.860Z,9.20
2019-03-12T11:45:58.718Z,9.40
2019-03-12T11:48:02.584Z,9.20
2019-03-12T11:50:07.981Z,8.90
2019-03-12T11:52:11.921Z,8.60
2019-03-12T11:54:33.741Z,8.30
2019-03-12T11:56:37.813Z,8.20
2019-03-12T11:58:41.749Z,8.20
2019-03-12T12:00:56.666Z,8.40
2019-03-12T12:03:00.829Z,8.20
2019-03-12T12:05:05.220Z,8.20
2019-03-12T12:07:09.113Z,8.30
2019-03-12T12:09:13.475Z,8.30
2019-03-12T12:11:18.397Z,8.30
2019-03-12T12:13:22.499Z,8.20
2019-03-12T12:15:26.439Z,8.10
2019-03-12T12:17:30.303Z,8.20
2019-03-12T12:19:34.104Z,8.30
2019-03-12T12:21:37.891Z,8.40
2019-03-12T12:23:41.683Z,8.50
2019-03-12T12:25:45.572Z,8.60
2019-03-12T12:27:51.467Z,8.60
2019-03-12T12:29:55.283Z,8.70
2019-03-12T12:31:59.486Z,8.80
2019-03-12T12:34:03.381Z,8.70
2019-03-12T12:36:07.311Z,8.70
2019-03-12T12:38:11.185Z,8.60
2019-03-12T12:40:15.800Z,8.60
2019-03-12T12:42:20.433Z,8.60
2019-03-12T12:44:24.223Z,8.50
2019-03-12T12:46:28.028Z,8.40
2019-03-12T12:48:31.968Z,8.30
2019-03-12T12:50:35.929Z,8.60
2019-03-12T12:52:39.851Z,8.60
2019-03-12T12:54:43.652Z,8.50
2019-03-12T12:56:48.030Z,8.40
2019-03-12T12:58:52.129Z,8.60
2019-03-12T13:00:56.055Z,8.50
2019-03-12T13:02:59.998Z,8.50
2019-03-12T13:05:05.247Z,8.40
2019-03-12T13:07:09.186Z,8.40
2019-03-12T13:09:13.259Z,8.40
2019-03-12T13:11:17.123Z,8.50
2019-03-12T13:13:21.511Z,8.70
2019-03-12T13:15:25.517Z,8.80
2019-03-12T13:17:29.379Z,8.50
2019-03-12T13:19:33.142Z,8.60
2019-03-12T13:21:37.076Z,8.50
2019-03-12T13:23:40.944Z,8.60
2019-03-12T13:25:44.781Z,8.70
2019-03-12T13:27:49.214Z,9.10
2019-03-12T13:29:53.360Z,9.20
2019-03-12T13:31:57.261Z,9.30
2019-03-12T13:34:01.484Z,9.00
2019-03-12T13:36:08.731Z,9.00
2019-03-12T13:38:12.523Z,9.10
2019-03-12T13:40:17.123Z,9.30
2019-03-12T13:42:21.694Z,9.40
2019-03-12T13:44:25.671Z,9.60
2019-03-12T13:46:29.747Z,9.60
2019-03-12T13:48:33.637Z,10.10
2019-03-12T13:50:37.511Z,10.10
2019-03-12T13:52:41.636Z,10.00
2019-03-12T13:54:45.623Z,9.90
2019-03-12T13:56:50.146Z,9.70
2019-03-12T13:58:54.312Z,9.40
2019-03-12T14:00:58.163Z,9.30
2019-03-12T14:03:02.026Z,9.40
2019-03-12T14:05:06.771Z,9.50
2019-03-12T14:07:10.765Z,9.60
2019-03-12T14:09:14.599Z,10.00
2019-03-12T14:11:19.247Z,10.20
2019-03-12T14:13:24.137Z,10.20
2019-03-12T14:15:29.199Z,10.20
2019-03-12T14:17:33.422Z,10.10
2019-03-12T14:19:37.330Z,9.70
2019-03-12T14:21:43.135Z,9.60
2019-03-12T14:23:51.797Z,9.40
2019-03-12T14:25:55.944Z,9.30
2019-03-12T14:27:59.799Z,9.20
2019-03-12T14:30:04.125Z,9.20
2019-03-12T14:32:07.966Z,9.20
2019-03-12T14:34:11.751Z,9.10
2019-03-12T14:36:16.850Z,9.00
2019-03-12T14:38:21.692Z,8.80
2019-03-12T14:40:25.744Z,8.80
2019-03-12T14:42:29.999Z,8.90
2019-03-12T14:44:33.814Z,8.90
2019-03-12T14:46:37.723Z,8.80
2019-03-12T14:48:46.140Z,8.80
2019-03-12T14:50:50.743Z,8.80
2019-03-12T14:53:01.159Z,8.80
2019-03-12T14:55:05.791Z,8.80
2019-03-12T14:57:09.771Z,8.80
2019-03-12T14:59:13.719Z,8.70
2019-03-12T15:01:17.528Z,8.60
2019-03-12T15:03:22.473Z,8.60
2019-03-12T15:05:26.399Z,8.60
2019-03-12T15:07:30.303Z,8.50
2019-03-12T15:09:34.168Z,8.50
2019-03-12T15:11:38.159Z,8.50
2019-03-12T15:13:41.999Z,8.50
2019-03-12T15:15:45.795Z,8.50
2019-03-12T15:17:50.515Z,8.50
2019-03-12T15:19:54.434Z,8.50
2019-03-12T15:21:58.343Z,8.50
2019-03-12T15:24:02.240Z,8.60
2019-03-12T15:26:06.030Z,8.50
2019-03-12T15:28:09.890Z,8.50
2019-03-12T15:30:18.216Z,8.50
2019-03-12T15:32:22.730Z,8.50
2019-03-12T15:34:26.663Z,8.50
2019-03-12T15:36:30.518Z,8.50
2019-03-12T15:38:34.723Z,8.60
2019-03-12T15:40:38.541Z,8.50
2019-03-12T15:42:42.528Z,8.60
2019-03-12T15:44:46.590Z,8.50
2019-03-12T15:46:51.037Z,8.60
2019-03-12T15:48:54.852Z,8.60
2019-03-12T15:50:58.786Z,8.60
2019-03-12T15:53:02.590Z,8.50
2019-03-12T15:55:06.541Z,8.60
2019-03-12T15:57:10.380Z,8.60
2019-03-12T15:59:14.275Z,8.50
2019-03-12T16:01:18.163Z,8.50
2019-03-12T16:03:22.963Z,8.50
2019-03-12T16:05:26.832Z,8.50
2019-03-12T16:07:30.658Z,8.50
2019-03-12T16:09:34.532Z,8.40
2019-03-12T16:11:38.361Z,8.50
2019-03-12T16:13:42.303Z,8.50
2019-03-12T16:15:46.351Z,8.40
2019-03-12T16:17:50.830Z,8.40
2019-03-12T16:19:54.668Z,8.30
2019-03-12T16:21:58.555Z,8.30
2019-03-12T16:24:02.343Z,8.30
2019-03-12T16:26:06.403Z,8.30
2019-03-12T16:28:10.751Z,8.20
2019-03-12T16:30:14.821Z,8.20
2019-03-12T16:32:18.587Z,8.20
2019-03-12T16:34:23.200Z,8.10
2019-03-12T16:36:27.133Z,8.20
2019-03-12T16:38:30.959Z,8.10
2019-03-12T16:40:35.440Z,8.10
2019-03-12T16:42:39.368Z,8.10
2019-03-12T16:44:43.119Z,8.00
2019-03-12T16:46:47.040Z,8.00
2019-03-12T16:48:51.848Z,7.90
2019-03-12T16:50:55.711Z,8.00
2019-03-12T16:52:59.526Z,8.00
2019-03-12T16:55:03.452Z,8.10
2019-03-12T16:57:07.395Z,8.00
2019-03-12T16:59:11.340Z,8.00
2019-03-12T17:01:15.269Z,8.10
2019-03-12T17:03:19.102Z,8.10
2019-03-12T17:05:26.322Z,8.00
2019-03-12T17:07:29.599Z,8.00
2019-03-12T17:09:33.370Z,8.00
2019-03-12T17:11:37.252Z,8.10
2019-03-12T17:13:41.031Z,8.10
2019-03-12T17:15:45.286Z,8.10
2019-03-12T17:17:49.193Z,8.10
2019-03-12T17:19:53.893Z,8.10
2019-03-12T17:21:57.764Z,8.10
2019-03-12T17:24:01.915Z,8.10
2019-03-12T17:26:05.851Z,8.20
2019-03-12T17:28:09.607Z,8.30
2019-03-12T17:30:15.892Z,8.30
2019-03-12T17:32:19.850Z,8.30
2019-03-12T17:34:35.404Z,8.30
2019-03-12T17:36:29.824Z,8.20
2019-03-12T17:38:46.002Z,8.20
2019-03-12T17:40:39.392Z,8.20
2019-03-12T17:42:43.943Z,8.20
2019-03-12T17:44:47.724Z,8.20
2019-03-12T17:46:52.124Z,8.20
2019-03-12T17:48:56.095Z,8.20
2019-03-12T17:50:59.887Z,8.10
2019-03-12T17:53:03.756Z,8.20
2019-03-12T17:55:09.255Z,8.30
2019-03-12T17:57:13.139Z,8.20
2019-03-12T17:59:16.998Z,8.30
2019-03-12T18:01:29.345Z,8.30
2019-03-12T18:03:26.720Z,8.30
2019-03-12T18:05:30.497Z,8.30
2019-03-12T18:07:34.260Z,8.30
2019-03-12T18:09:38.087Z,8.40
2019-03-12T18:11:41.864Z,8.30
2019-03-12T18:13:45.807Z,8.40
2019-03-12T18:15:49.595Z,8.40
2019-03-12T18:17:53.952Z,8.40
2019-03-12T18:19:57.995Z,8.40
2019-03-12T18:22:01.841Z,8.40
2019-03-12T18:24:05.760Z,8.30
2019-03-12T18:26:11.586Z,8.30
2019-03-12T18:28:15.407Z,8.30
2019-03-12T18:30:19.503Z,8.40
2019-03-12T18:32:24.420Z,8.40
2019-03-12T18:34:28.292Z,8.30
2019-03-12T18:36:32.173Z,8.30
2019-03-12T18:38:36.109Z,8.30
2019-03-12T18:40:40.215Z,8.30
2019-03-12T18:42:44.140Z,8.30
2019-03-12T18:44:48.199Z,8.30
2019-03-12T18:46:53.594Z,8.20
2019-03-12T18:48:57.380Z,8.30
2019-03-12T18:51:01.203Z,8.40
2019-03-12T18:53:05.266Z,8.40
2019-03-12T18:55:12.407Z,8.30
2019-03-12T18:57:16.287Z,8.30
2019-03-12T18:59:20.239Z,8.30
2019-03-12T19:01:24.770Z,8.30
2019-03-12T19:03:28.947Z,8.30
2019-03-12T19:05:32.973Z,8.30
2019-03-12T19:07:36.855Z,8.30
2019-03-12T19:09:40.792Z,8.20
2019-03-12T19:11:44.597Z,8.30
2019-03-12T19:13:48.537Z,8.30
2019-03-12T19:15:53.230Z,8.40
2019-03-12T19:17:57.112Z,8.30
2019-03-12T19:20:00.907Z,8.40
2019-03-12T19:22:04.899Z,8.50
2019-03-12T19:24:08.724Z,8.50
2019-03-12T19:26:13.055Z,8.40
2019-03-12T19:28:16.995Z,8.50
2019-03-12T19:30:21.273Z,8.50
2019-03-12T19:32:35.615Z,8.50
2019-03-12T19:34:39.500Z,8.50
2019-03-12T19:36:43.395Z,8.60
2019-03-12T19:38:47.344Z,8.60
2019-03-12T19:40:51.544Z,8.70
2019-03-12T19:42:55.675Z,8.70
2019-03-12T19:44:59.611Z,8.70
2019-03-12T19:47:04.785Z,8.70
2019-03-12T19:49:08.879Z,8.70
2019-03-12T19:51:12.687Z,8.60
2019-03-12T19:53:17.003Z,8.60
2019-03-12T19:55:24.783Z,8.60
2019-03-12T19:57:28.721Z,8.60
2019-03-12T19:59:32.669Z,8.70
2019-03-12T20:01:36.717Z,8.70
2019-03-12T20:03:40.631Z,8.70
2019-03-12T20:05:44.581Z,8.70
2019-03-12T20:07:48.523Z,8.70
2019-03-12T20:10:19.777Z,8.80
2019-03-12T20:13:13.996Z,8.70
2019-03-12T20:16:11.071Z,8.80
2019-03-12T20:18:55.380Z,8.90
2019-03-12T20:21:31.254Z,8.80
2019-03-12T20:24:11.210Z,8.80
2019-03-12T20:26:51.376Z,8.90
2019-03-12T20:29:35.917Z,9.00
2019-03-12T20:32:30.156Z,9.10
2019-03-12T20:35:10.509Z,9.20
2019-03-12T20:37:50.858Z,9.40
2019-03-12T20:40:30.958Z,9.60
2019-03-12T20:43:27.242Z,9.50
2019-03-12T20:46:23.961Z,9.50
2019-03-12T20:49:10.962Z,9.80
2019-03-12T20:51:53.400Z,10.10
2019-03-12T20:54:35.339Z,10.20
2019-03-12T20:57:19.571Z,10.20
2019-03-12T21:00:00.458Z,10.30
2019-03-12T21:02:40.378Z,10.30
2019-03-12T21:05:24.547Z,10.30
2019-03-12T21:07:58.012Z,10.20
2019-03-12T21:10:36.980Z,10.20
2019-03-12T21:13:27.681Z,10.20
2019-03-12T21:16:14.268Z,10.10
2019-03-12T21:18:45.410Z,10.10
2019-03-12T21:21:41.192Z,10.00
2019-03-12T21:24:06.567Z,10.00
2019-03-12T21:27:03.789Z,9.90
2019-03-12T21:29:27.400Z,9.80
2019-03-12T21:31:31.252Z,9.70
2019-03-12T21:33:35.461Z,9.70
2019-03-12T21:35:39.378Z,9.70
2019-03-12T21:37:43.196Z,9.60
2019-03-12T21:39:55.074Z,9.60
2019-03-12T21:41:53.369Z,9.60
2019-03-12T21:43:57.452Z,9.60
2019-03-12T21:46:01.248Z,9.50
2019-03-12T21:48:05.392Z,9.40
2019-03-12T21:50:10.143Z,9.40
2019-03-12T21:52:14.000Z,9.30
2019-03-12T21:54:18.008Z,9.10
2019-03-12T21:56:22.045Z,8.90
2019-03-12T21:58:26.756Z,8.70
2019-03-12T22:00:30.809Z,8.60
2019-03-12T22:02:34.551Z,8.40
2019-03-12T22:04:38.367Z,8.30
2019-03-12T22:06:42.285Z,8.20
2019-03-12T22:08:46.112Z,8.20
2019-03-12T22:10:49.963Z,8.10
2019-03-12T22:12:54.531Z,8.00
2019-03-12T22:14:58.334Z,7.90
2019-03-12T22:17:03.744Z,7.80
2019-03-12T22:19:07.544Z,7.80
2019-03-12T22:21:12.173Z,7.70
2019-03-12T22:23:19.363Z,7.70
2019-03-12T22:25:24.080Z,7.60
2019-03-12T22:27:28.086Z,7.40
2019-03-12T22:29:31.876Z,7.30
2019-03-12T22:31:35.989Z,7.10
2019-03-12T22:33:39.797Z,6.90
2019-03-12T22:35:43.583Z,6.60
2019-03-12T22:37:47.491Z,6.50
2019-03-12T22:39:51.275Z,6.40
2019-03-12T22:41:56.211Z,6.30
2019-03-12T22:44:00.035Z,6.30
2019-03-12T22:46:03.980Z,6.20
2019-03-12T22:48:07.799Z,6.00
2019-03-12T22:50:11.767Z,5.90
2019-03-12T22:52:16.123Z,5.80
2019-03-12T22:54:19.916Z,5.80
2019-03-12T22:56:24.550Z,5.70
2019-03-12T22:58:28.420Z,5.60
2019-03-12T23:00:38.046Z,5.50
2019-03-12T23:02:41.854Z,5.50
2019-03-12T23:04:45.707Z,5.50
2019-03-12T23:06:49.539Z,5.50
2019-03-12T23:08:53.724Z,5.50
2019-03-12T23:10:57.891Z,5.50
2019-03-12T23:13:01.718Z,5.40
2019-03-12T23:15:06.727Z,5.40
2019-03-12T23:17:10.750Z,5.40
2019-03-12T23:19:14.539Z,5.40
2019-03-12T23:21:18.442Z,5.40
2019-03-12T23:23:22.403Z,5.50
2019-03-12T23:25:27.167Z,5.50
2019-03-12T23:27:33.856Z,5.40
2019-03-12T23:29:37.788Z,5.50
2019-03-12T23:31:41.732Z,5.50
2019-03-12T23:33:45.553Z,5.50
2019-03-12T23:35:49.454Z,5.50
2019-03-12T23:37:53.487Z,5.50
2019-03-12T23:39:57.890Z,5.50
2019-03-12T23:42:01.827Z,5.40
2019-03-12T23:44:05.758Z,5.40
2019-03-12T23:46:09.723Z,5.50
2019-03-12T23:48:13.613Z,5.50
2019-03-12T23:50:18.008Z,5.50
2019-03-12T23:52:21.899Z,5.50
2019-03-12T23:54:27.512Z,5.50
2019-03-12T23:56:31.371Z,5.40
2019-03-12T23:58:35.229Z,5.40
